aviador You're here:

KBHK Decoded Metar

BAKER in MT, USA
Report Time2018-02-22 13:51:00
UTC Time2018-02-22 14:54:06
Flight Rules vfr VFR
WindCalm
Visibility9999 m
Phenomena:N/A
Clouds:N/A
Expected CloudBase > 1,200 ft AGL from Temp-Dew spread
CeilingNone
Temp-24°C (ISA -33)
Dew Point-27°C (76% RH)
AAT-27.8°C
QNH1021 hPa
Density Alt-1,542 ft
Elevation2,959 ft
Report Wrong Elevation
Raw Report
KBHK 221351Z AUTO 00000KT 10SM CLR M24/M27 A3014 RMK AO2 SLP288
T12441267=

Extra information for KBHK:More info

Metar Taf Metar & Taf Last 4 Metars F.Rules Stats Wind Profile Meteogram Temp Stats Airport Information Weather charts Add Link Nearby VenuesMetar ALERT Operation Metar Decoded Social comments

AIRNAV info for KBHK